Time;durP1;ratioP1;P1;durP2;ratioP2;P2;SDS_P1;SDS_P2;PMS_P1;PMS_P2;Temp;Humidity;BMP_temperature;BMP_pressure;BME280_temperature;BME280_humidity;BME280_pressure;Samples;Min_cycle;Max_cycle;Signal;HPM_P1;HPM_P2
2022/09/20 00:01:21;;;;;;;13.00;3.90;;;11.30;99.90;;;;;;5033576;28;20156;-77
2022/09/20 00:03:50;;;;;;;9.88;2.67;;;11.30;99.90;;;;;;5015904;28;20030;-76
2022/09/20 00:06:19;;;;;;;9.20;3.10;;;11.30;99.90;;;;;;5033463;28;20033;-76
2022/09/20 00:08:47;;;;;;;10.07;3.20;;;11.30;99.90;;;;;;5033414;28;20033;-77
2022/09/20 00:11:17;;;;;;;10.83;2.90;;;11.40;99.90;;;;;;5033508;28;20033;-77
2022/09/20 00:13:45;;;;;;;9.90;3.70;;;11.40;99.90;;;;;;5033185;28;20032;-76
2022/09/20 00:16:14;;;;;;;11.70;4.63;;;11.40;99.90;;;;;;5015628;28;20041;-77
2022/09/20 00:18:40;;;;;;;15.18;4.75;;;11.50;99.90;;;;;;5033182;28;20233;-77
2022/09/20 00:21:07;;;;;;;10.33;4.13;;;11.50;99.90;;;;;;5033575;28;20040;-76
2022/09/20 00:23:33;;;;;;;14.60;6.27;;;11.60;99.90;;;;;;5015456;28;20033;-77
2022/09/20 00:26:01;;;;;;;21.43;9.00;;;11.70;99.90;;;;;;5033044;28;20033;-77
2022/09/20 00:28:28;;;;;;;21.23;8.85;;;11.80;99.90;;;;;;5033168;28;20079;-77
2022/09/20 00:30:55;;;;;;;20.67;8.87;;;11.90;99.90;;;;;;5015392;28;20237;-77
2022/09/20 00:33:23;;;;;;;19.50;9.00;;;11.90;99.90;;;;;;5033336;28;20026;-77
2022/09/20 00:35:49;;;;;;;17.50;8.25;;;12.00;99.90;;;;;;5015169;28;20124;-77
2022/09/20 00:38:16;;;;;;;21.43;8.10;;;12.00;99.90;;;;;;5015530;28;20095;-77
2022/09/20 00:40:43;;;;;;;16.70;7.22;;;12.10;99.90;;;;;;5015487;28;20128;-77
2022/09/20 00:43:16;;;;;;;15.48;7.40;;;12.10;99.90;;;;;;5033033;28;20029;-76
2022/09/20 00:45:47;;;;;;;17.20;7.10;;;12.20;99.90;;;;;;5032644;28;20540;-76
2022/09/20 00:48:28;;;;;;;15.52;7.40;;;12.20;99.90;;;;;;5032916;28;20029;-77
2022/09/20 00:51:06;;;;;;;14.27;7.37;;;12.20;99.90;;;;;;5032580;28;20029;-77
2022/09/20 00:53:37;;;;;;;14.53;6.17;;;12.20;99.90;;;;;;5032774;28;20045;-77
2022/09/20 00:56:11;;;;;;;12.25;6.38;;;12.30;99.90;;;;;;5032887;28;20497;-77
2022/09/20 00:58:45;;;;;;;18.67;7.13;;;12.30;99.90;;;;;;5032929;28;20029;-77
2022/09/20 01:01:13;;;;;;;14.60;5.85;;;12.30;99.90;;;;;;5015040;28;20065;-77
2022/09/20 01:03:41;;;;;;;16.77;5.97;;;12.30;99.90;;;;;;5032892;28;20043;-77
2022/09/20 01:06:10;;;;;;;14.00;6.35;;;12.20;99.90;;;;;;5032991;28;20038;-77
2022/09/20 01:08:38;;;;;;;11.07;5.45;;;12.20;99.90;;;;;;5032886;28;20693;-77
2022/09/20 01:11:04;;;;;;;13.25;5.00;;;12.20;99.90;;;;;;5013913;28;20473;-76
2022/09/20 01:13:30;;;;;;;11.85;5.03;;;12.20;99.90;;;;;;5015343;28;20017;-77
2022/09/20 01:15:59;;;;;;;13.35;5.10;;;12.20;99.90;;;;;;5032835;28;20052;-77
2022/09/20 01:18:27;;;;;;;12.18;5.00;;;12.10;99.90;;;;;;5032254;28;20025;-77
2022/09/20 01:20:54;;;;;;;10.50;5.05;;;12.00;99.90;;;;;;5032471;28;20044;-76
2022/09/20 01:23:38;;;;;;;13.15;5.70;;;12.00;99.90;;;;;;5032311;28;20036;-77
2022/09/20 01:26:25;;;;;;;11.68;4.85;;;12.00;99.90;;;;;;5032065;28;20059;-77
2022/09/20 01:29:02;;;;;;;12.43;5.43;;;12.00;99.90;;;;;;5014133;28;20057;-77
2022/09/20 01:31:32;;;;;;;10.57;5.32;;;12.00;99.90;;;;;;5014153;28;20033;-77
2022/09/20 01:34:00;;;;;;;9.53;5.20;;;11.90;99.90;;;;;;5031860;28;20037;-77
2022/09/20 01:36:40;;;;;;;11.80;5.15;;;11.80;99.90;;;;;;5031773;28;20040;-77
2022/09/20 01:39:27;;;;;;;13.13;5.45;;;11.80;99.90;;;;;;5031621;28;20033;-75
2022/09/20 01:41:57;;;;;;;15.70;6.05;;;11.70;99.90;;;;;;5031809;28;20509;-77
2022/09/20 01:44:39;;;;;;;17.10;6.40;;;11.70;99.90;;;;;;5032002;28;20639;-77
2022/09/20 01:47:34;;;;;;;14.00;6.37;;;11.70;99.90;;;;;;5031564;28;20029;-77
2022/09/20 01:50:06;;;;;;;12.60;5.73;;;11.60;99.90;;;;;;5031559;28;20041;-76
2022/09/20 01:52:53;;;;;;;14.50;6.22;;;11.60;99.90;;;;;;5031469;28;20053;-76
2022/09/20 01:56:09;;;;;;;13.27;5.87;;;11.60;99.90;;;;;;5031450;28;20283;-77
2022/09/20 01:58:57;;;;;;;10.27;5.20;;;11.50;99.90;;;;;;4988445;28;20033;-76
2022/09/20 02:01:26;;;;;;;17.33;5.70;;;11.60;99.90;;;;;;4997253;28;20029;-76
2022/09/20 02:04:01;;;;;;;14.40;5.60;;;11.50;99.90;;;;;;5031944;28;20030;-76
2022/09/20 02:06:51;;;;;;;11.93;5.30;;;11.50;99.90;;;;;;5031210;28;20260;-76
2022/09/20 02:09:48;;;;;;;10.40;5.03;;;11.50;99.90;;;;;;5031111;28;20029;-76
2022/09/20 02:12:31;;;;;;;12.90;5.83;;;11.50;99.90;;;;;;5031409;28;20026;-76
2022/09/20 02:15:28;;;;;;;12.10;5.87;;;11.40;99.90;;;;;;5013626;28;20021;-77
2022/09/20 02:17:54;;;;;;;15.30;5.97;;;11.40;99.90;;;;;;5031055;28;20029;-77
2022/09/20 02:20:26;;;;;;;13.57;5.70;;;11.40;99.90;;;;;;5030650;28;20375;-75
2022/09/20 02:23:04;;;;;;;14.60;5.50;;;11.40;99.90;;;;;;5030854;28;20034;-76
2022/09/20 02:25:39;;;;;;;13.13;5.53;;;11.40;99.90;;;;;;5030993;28;20030;-77
2022/09/20 02:28:23;;;;;;;12.90;5.30;;;11.40;99.90;;;;;;5013400;28;20033;-75
2022/09/20 02:31:16;;;;;;;17.63;5.57;;;11.40;99.90;;;;;;5030639;28;20036;-76
2022/09/20 02:34:04;;;;;;;13.17;5.60;;;11.30;99.90;;;;;;5030939;28;20033;-77
2022/09/20 02:37:03;;;;;;;12.47;5.50;;;11.40;99.90;;;;;;5030834;28;20030;-77
2022/09/20 02:39:38;;;;;;;;;;;11.40;99.90;;;;;;5031013;28;20061;-77
2022/09/20 02:42:17;;;;;;;11.07;5.00;;;11.40;99.90;;;;;;5030511;28;20369;-77
2022/09/20 02:44:58;;;;;;;14.33;5.53;;;11.40;99.90;;;;;;5013268;28;20571;-77
2022/09/20 02:47:38;;;;;;;13.77;5.00;;;11.40;99.90;;;;;;5030555;28;20040;-77
2022/09/20 02:50:32;;;;;;;12.67;4.90;;;11.40;99.90;;;;;;5030607;28;20097;-76
2022/09/20 02:53:36;;;;;;;12.27;4.77;;;11.40;99.90;;;;;;5030518;28;20471;-77
2022/09/20 02:56:28;;;;;;;12.93;5.80;;;11.40;99.90;;;;;;5030585;28;20128;-76
2022/09/20 02:59:05;;;;;;;10.90;5.30;;;11.40;99.90;;;;;;5030469;28;20040;-76
2022/09/20 03:01:49;;;;;;;8.03;4.60;;;11.40;99.90;;;;;;5030501;28;20037;-77
2022/09/20 03:04:32;;;;;;;9.57;5.00;;;11.30;99.90;;;;;;5030595;28;20037;-77
2022/09/20 03:07:36;;;;;;;12.53;5.60;;;11.40;99.90;;;;;;5030718;28;20619;-76
2022/09/20 03:10:27;;;;;;;13.00;5.43;;;11.30;99.90;;;;;;5030564;28;20491;-76
2022/09/20 03:13:13;;;;;;;11.00;4.47;;;11.40;99.90;;;;;;5030439;28;20028;-76
2022/09/20 03:16:08;;;;;;;10.73;4.70;;;11.40;99.90;;;;;;5030945;28;20437;-76
2022/09/20 03:18:58;;;;;;;13.07;5.10;;;11.30;99.90;;;;;;5050284;23;20029;-85
2022/09/20 03:21:51;;;;;;;9.33;4.40;;;11.30;99.90;;;;;;5008291;28;20034;-85
2022/09/20 03:24:50;;;;;;;10.87;4.60;;;11.30;99.90;;;;;;4993250;28;20030;-85
2022/09/20 03:30:52;;;;;;;11.20;5.03;;;11.40;99.90;;;;;;5017808;23;20303;-69
2022/09/20 03:33:36;;;;;;;9.95;5.10;;;11.50;99.90;;;;;;5011535;28;20520;-69
2022/09/20 03:36:08;;;;;;;9.07;4.27;;;11.40;99.90;;;;;;5008977;28;20141;-69
2022/09/20 03:38:49;;;;;;;9.43;4.40;;;11.50;99.90;;;;;;5000781;28;20025;-69
2022/09/20 03:41:36;;;;;;;14.53;4.47;;;11.50;99.90;;;;;;5013399;28;20033;-69
2022/09/20 03:44:41;;;;;;;9.70;4.37;;;11.50;99.90;;;;;;4995414;28;20038;-70
2022/09/20 03:47:45;;;;;;;12.87;5.00;;;11.60;99.90;;;;;;5013102;28;20046;-68
2022/09/20 03:50:20;;;;;;;17.07;5.27;;;11.60;99.90;;;;;;5013154;28;20025;-69
2022/09/20 03:52:58;;;;;;;13.73;4.90;;;11.60;99.90;;;;;;5012820;28;20517;-67
2022/09/20 03:55:48;;;;;;;11.93;3.97;;;11.70;99.90;;;;;;5013283;28;20030;-66
2022/09/20 03:58:28;;;;;;;11.67;4.27;;;11.70;99.90;;;;;;5013201;28;20383;-66
2022/09/20 04:01:15;;;;;;;12.47;4.43;;;11.80;99.90;;;;;;5013126;28;20065;-65
2022/09/20 04:04:07;;;;;;;13.93;4.70;;;11.80;99.90;;;;;;5013034;28;20034;-67
2022/09/20 04:07:06;;;;;;;10.67;4.30;;;11.80;99.90;;;;;;5012676;28;20032;-68
2022/09/20 04:09:55;;;;;;;13.55;4.22;;;11.80;99.90;;;;;;5012948;28;20022;-67
2022/09/20 04:12:32;;;;;;;9.93;4.45;;;11.90;99.90;;;;;;5012717;28;20160;-66
2022/09/20 04:15:19;;;;;;;13.85;4.78;;;11.90;99.90;;;;;;5012575;28;20033;-66
2022/09/20 04:18:09;;;;;;;13.80;4.93;;;12.00;99.90;;;;;;5012704;28;20026;-67
2022/09/20 04:20:54;;;;;;;12.00;4.15;;;12.00;99.90;;;;;;5012903;28;20466;-67
2022/09/20 04:23:49;;;;;;;9.87;4.20;;;12.00;99.90;;;;;;5012117;28;20061;-67
2022/09/20 04:26:22;;;;;;;12.43;5.30;;;12.00;99.90;;;;;;5011909;28;20446;-67
2022/09/20 04:28:55;;;;;;;14.45;5.10;;;12.00;99.90;;;;;;5012159;28;20086;-67
2022/09/20 04:31:41;;;;;;;15.50;6.57;;;12.00;99.90;;;;;;4994938;28;20519;-67
2022/09/20 04:34:21;;;;;;;12.23;5.32;;;12.10;99.90;;;;;;5012295;28;20026;-66
2022/09/20 04:37:21;;;;;;;13.02;4.50;;;12.10;99.90;;;;;;5012246;28;20034;-67
2022/09/20 04:39:59;;;;;;;11.93;4.20;;;12.10;99.90;;;;;;5011920;28;20125;-67
2022/09/20 04:42:46;;;;;;;9.10;3.97;;;12.10;99.90;;;;;;5012107;28;20041;-68
2022/09/20 04:45:33;;;;;;;8.65;3.83;;;12.10;99.90;;;;;;5011871;28;20087;-67
2022/09/20 04:48:04;;;;;;;15.38;4.22;;;12.20;99.90;;;;;;5011838;28;20490;-67
2022/09/20 04:50:55;;;;;;;11.38;4.40;;;12.20;99.90;;;;;;5011711;28;20029;-67
2022/09/20 04:53:50;;;;;;;12.30;4.47;;;12.20;99.90;;;;;;5011454;28;20080;-69
2022/09/20 04:56:51;;;;;;;11.48;4.43;;;12.20;99.90;;;;;;5012029;28;20038;-68
2022/09/20 05:00:13;;;;;;;11.10;4.00;;;12.20;99.90;;;;;;5001070;28;20033;-68
2022/09/20 05:02:40;;;;;;;14.38;4.55;;;12.20;99.90;;;;;;4968281;28;20286;-67
2022/09/20 05:05:34;;;;;;;11.07;4.43;;;12.20;99.90;;;;;;5011883;28;20509;-66
2022/09/20 05:08:13;;;;;;;13.27;5.03;;;12.30;99.90;;;;;;4993586;28;20133;-67
2022/09/20 05:10:48;;;;;;;14.07;6.78;;;12.30;99.90;;;;;;5011433;28;20060;-67
2022/09/20 05:13:14;;;;;;;13.57;5.35;;;12.30;99.90;;;;;;5011464;28;20101;-67
2022/09/20 05:15:57;;;;;;;16.63;6.05;;;12.30;99.90;;;;;;5011253;28;20088;-67
2022/09/20 05:19:01;;;;;;;13.52;5.18;;;12.30;99.90;;;;;;5011652;28;20046;-68
2022/09/20 05:21:57;;;;;;;14.15;5.13;;;12.30;99.90;;;;;;5011044;28;20479;-67
2022/09/20 05:24:59;;;;;;;16.30;5.05;;;12.30;99.90;;;;;;4993038;28;20072;-68
2022/09/20 05:27:39;;;;;;;14.45;4.32;;;12.30;99.90;;;;;;5011110;28;20084;-67
2022/09/20 05:30:30;;;;;;;13.40;4.45;;;12.30;99.90;;;;;;5010755;28;20080;-67
2022/09/20 05:33:14;;;;;;;13.02;4.78;;;12.30;99.90;;;;;;4993377;28;20197;-67
2022/09/20 05:35:47;;;;;;;14.18;4.30;;;12.30;99.90;;;;;;5010964;28;20551;-67
2022/09/20 05:38:25;;;;;;;14.95;4.85;;;12.30;99.90;;;;;;5010774;28;20029;-67
2022/09/20 05:41:14;;;;;;;11.25;5.03;;;12.30;99.90;;;;;;5010842;28;20076;-67
2022/09/20 05:43:50;;;;;;;;;;;12.40;99.90;;;;;;5011441;28;20370;-67
2022/09/20 05:46:36;;;;;;;11.82;5.03;;;12.40;99.90;;;;;;5010844;28;19913;-66
2022/09/20 05:49:11;;;;;;;11.25;5.43;;;12.40;99.90;;;;;;5010506;28;20065;-67
2022/09/20 05:51:52;;;;;;;12.38;5.50;;;12.40;99.90;;;;;;4993150;28;20026;-68
2022/09/20 05:54:31;;;;;;;12.18;5.88;;;12.40;99.90;;;;;;5010431;28;20053;-67
2022/09/20 05:57:31;;;;;;;10.43;5.13;;;12.40;99.90;;;;;;4992537;28;20041;-67
2022/09/20 06:00:03;;;;;;;16.73;5.25;;;12.40;99.90;;;;;;5010610;28;20487;-67
2022/09/20 06:02:58;;;;;;;10.73;4.57;;;12.40;99.90;;;;;;5010868;28;20049;-67
2022/09/20 06:05:39;;;;;;;11.45;4.45;;;12.50;99.90;;;;;;5010744;28;20048;-66
2022/09/20 06:08:27;;;;;;;9.75;4.63;;;12.50;99.90;;;;;;5010208;28;20503;-67
2022/09/20 06:11:17;;;;;;;14.70;5.82;;;12.50;99.90;;;;;;5010916;28;20040;-67
2022/09/20 06:14:14;;;;;;;20.88;7.55;;;12.40;99.90;;;;;;5010482;28;20029;-66
2022/09/20 06:17:03;;;;;;;16.92;8.02;;;12.50;99.90;;;;;;5010692;28;20041;-71
2022/09/20 06:19:41;;;;;;;12.18;5.00;;;12.50;99.90;;;;;;5010587;28;20034;-73
2022/09/20 06:22:30;;;;;;;12.77;4.47;;;12.50;99.90;;;;;;4992827;28;20037;-71
2022/09/20 06:25:08;;;;;;;12.23;4.82;;;12.50;99.90;;;;;;4997569;28;20115;-72
2022/09/20 06:27:43;;;;;;;11.73;5.22;;;12.60;99.90;;;;;;5009464;28;20050;-68
2022/09/20 06:30:32;;;;;;;11.00;5.15;;;12.60;99.90;;;;;;4989119;28;20451;-68
2022/09/20 06:33:09;;;;;;;11.25;5.38;;;12.60;99.90;;;;;;4987881;28;20030;-68
2022/09/20 06:35:46;;;;;;;12.88;4.68;;;12.60;99.90;;;;;;4991215;28;20070;-67
2022/09/20 06:43:48;;;;;;;9.38;5.68;;;12.70;99.90;;;;;;4990775;28;20049;-68
2022/09/20 06:46:14;;;;;;;13.77;5.90;;;12.70;99.90;;;;;;4990226;28;20113;-68
2022/09/20 06:48:42;;;;;;;15.07;5.00;;;12.70;99.90;;;;;;4985185;28;20598;-67
2022/09/20 06:51:08;;;;;;;14.02;4.85;;;12.70;99.90;;;;;;4992578;28;20393;-69
2022/09/20 06:53:39;;;;;;;13.77;5.68;;;12.70;99.90;;;;;;5009568;28;20029;-68
2022/09/20 06:56:12;;;;;;;14.13;6.78;;;12.70;99.90;;;;;;5009942;28;20045;-69
2022/09/20 06:58:38;;;;;;;13.88;5.22;;;12.70;99.90;;;;;;5010103;28;20085;-69
2022/09/20 07:01:04;;;;;;;14.98;5.97;;;12.70;99.90;;;;;;5009592;28;20136;-69
2022/09/20 07:03:31;;;;;;;14.82;5.25;;;12.70;99.90;;;;;;5006593;28;20517;-68
2022/09/20 07:05:59;;;;;;;12.38;5.30;;;12.70;99.90;;;;;;4996450;28;20280;-69
2022/09/20 07:08:25;;;;;;;13.35;5.30;;;12.70;99.90;;;;;;4999843;28;20466;-69
2022/09/20 07:10:51;;;;;;;13.43;5.65;;;12.70;99.90;;;;;;5005204;28;20076;-69
2022/09/20 07:13:19;;;;;;;10.48;4.65;;;12.70;99.90;;;;;;5006774;28;20033;-70
2022/09/20 07:15:45;;;;;;;12.80;4.68;;;12.70;99.90;;;;;;5010061;28;20109;-69
2022/09/20 07:18:11;;;;;;;15.02;5.18;;;12.70;99.90;;;;;;5012829;28;20040;-69
2022/09/20 07:20:38;;;;;;;9.27;4.82;;;12.70;99.90;;;;;;5011967;28;20038;-70
2022/09/20 07:23:03;;;;;;;14.75;5.57;;;12.70;99.90;;;;;;5009003;28;20609;-69
2022/09/20 07:25:30;;;;;;;14.05;6.03;;;12.70;99.90;;;;;;4992836;28;20057;-69
2022/09/20 07:27:56;;;;;;;20.48;9.15;;;12.80;99.90;;;;;;4992448;28;20034;-69
2022/09/20 07:30:23;;;;;;;17.33;7.07;;;12.80;99.90;;;;;;4993190;28;20513;-67
2022/09/20 07:32:49;;;;;;;18.85;6.15;;;12.80;99.90;;;;;;4992320;28;20121;-70
2022/09/20 07:35:15;;;;;;;17.67;5.93;;;12.90;99.90;;;;;;4992540;28;20098;-68
2022/09/20 07:37:41;;;;;;;15.98;5.30;;;12.90;99.90;;;;;;4992161;28;20196;-69
2022/09/20 07:40:09;;;;;;;16.52;5.15;;;12.90;99.90;;;;;;4993231;28;20106;-68
2022/09/20 07:42:35;;;;;;;10.63;4.65;;;13.00;99.90;;;;;;4975800;28;20041;-69
2022/09/20 07:45:02;;;;;;;14.38;4.93;;;13.10;99.90;;;;;;5007636;28;20030;-68
2022/09/20 07:47:30;;;;;;;12.65;4.65;;;13.10;99.90;;;;;;5011110;28;20104;-68
2022/09/20 07:49:57;;;;;;;11.00;3.97;;;13.10;99.90;;;;;;5011793;28;20095;-68
2022/09/20 07:52:23;;;;;;;16.83;4.75;;;13.10;99.90;;;;;;4994662;28;20034;-68
2022/09/20 07:54:53;;;;;;;8.57;3.53;;;13.20;99.90;;;;;;5009267;28;20041;-69
2022/09/20 07:57:20;;;;;;;10.48;4.57;;;13.20;99.90;;;;;;5012195;28;20041;-69
2022/09/20 07:59:46;;;;;;;10.52;3.97;;;13.30;99.90;;;;;;5011658;28;20418;-67
2022/09/20 08:02:15;;;;;;;10.27;3.20;;;13.40;99.90;;;;;;5011490;28;20026;-69
2022/09/20 08:04:41;;;;;;;9.98;3.50;;;13.40;99.90;;;;;;4994222;28;20081;-68
2022/09/20 08:07:07;;;;;;;11.88;3.45;;;13.50;99.90;;;;;;4992002;28;20034;-69
2022/09/20 08:09:33;;;;;;;9.30;3.22;;;13.50;99.90;;;;;;4974433;28;20388;-68
2022/09/20 08:12:00;;;;;;;11.70;3.50;;;13.50;99.90;;;;;;4992566;28;20118;-68
2022/09/20 08:14:26;;;;;;;11.15;2.97;;;13.50;99.90;;;;;;4983835;28;20038;-68
2022/09/20 08:16:51;;;;;;;12.82;3.22;;;13.50;99.90;;;;;;4991907;28;20030;-68
2022/09/20 08:19:22;;;;;;;10.50;2.70;;;13.50;99.90;;;;;;4990961;28;20042;-67
2022/09/20 08:21:49;;;;;;;11.02;2.83;;;13.50;99.90;;;;;;4992226;28;20035;-69
2022/09/20 08:24:16;;;;;;;8.80;2.40;;;13.60;99.90;;;;;;4990579;28;20046;-68
2022/09/20 08:26:42;;;;;;;8.60;2.10;;;13.60;99.90;;;;;;4974303;28;20058;-66
2022/09/20 08:29:08;;;;;;;11.18;2.10;;;13.70;99.90;;;;;;4991798;28;20034;-69
2022/09/20 08:31:37;;;;;;;8.23;2.10;;;13.70;99.90;;;;;;4991399;28;20034;-68
2022/09/20 08:34:08;;;;;;;9.65;2.20;;;13.70;99.90;;;;;;4980427;28;20217;-69
2022/09/20 08:36:38;;;;;;;7.88;2.58;;;13.70;99.90;;;;;;5011315;28;20522;-69
2022/09/20 08:39:04;;;;;;;7.38;2.47;;;13.80;99.90;;;;;;5010634;28;20051;-68
2022/09/20 08:41:49;;;;;;;9.32;2.60;;;13.80;99.90;;;;;;5010649;28;20122;-68
2022/09/20 08:44:24;;;;;;;15.32;4.45;;;13.80;99.90;;;;;;5009658;28;20038;-69
2022/09/20 08:47:08;;;;;;;9.15;3.65;;;13.90;99.90;;;;;;5011113;28;20455;-68
2022/09/20 08:49:35;;;;;;;11.40;3.65;;;13.90;99.90;;;;;;5011328;28;20053;-70
2022/09/20 08:52:02;;;;;;;9.63;2.50;;;14.00;99.90;;;;;;5005048;28;20030;-70
2022/09/20 08:54:32;;;;;;;12.07;2.60;;;14.00;99.90;;;;;;5004903;28;20030;-68
2022/09/20 08:57:04;;;;;;;7.20;2.05;;;14.00;99.90;;;;;;5011518;28;20032;-68
2022/09/20 08:59:31;;;;;;;6.50;2.42;;;14.00;99.90;;;;;;5011524;28;20092;-70
2022/09/20 09:01:58;;;;;;;11.50;3.40;;;14.00;99.90;;;;;;5011509;28;20506;-69
2022/09/20 09:04:34;;;;;;;8.25;2.40;;;14.00;99.90;;;;;;5011672;28;20041;-70
2022/09/20 09:07:01;;;;;;;7.30;2.42;;;14.00;99.90;;;;;;4994034;28;20187;-70
2022/09/20 09:09:28;;;;;;;14.63;2.88;;;14.00;99.90;;;;;;5010810;28;20030;-70
2022/09/20 09:11:57;;;;;;;7.93;1.88;;;14.00;99.90;;;;;;5011657;28;20030;-70
2022/09/20 09:14:53;;;;;;;8.48;2.40;;;14.00;99.90;;;;;;5011392;28;20053;-70
2022/09/20 09:17:25;;;;;;;9.70;2.03;;;14.00;99.90;;;;;;5010822;28;20451;-71
2022/09/20 09:19:55;;;;;;;8.73;2.22;;;14.10;99.90;;;;;;5017987;23;20037;-80
2022/09/20 09:22:31;;;;;;;9.70;2.30;;;14.10;99.90;;;;;;5028836;28;20026;-80
2022/09/20 09:25:13;;;;;;;8.43;2.28;;;14.10;99.90;;;;;;5029407;28;20033;-80
2022/09/20 09:28:04;;;;;;;7.57;1.98;;;14.10;99.90;;;;;;5030117;28;20393;-81
2022/09/20 09:30:35;;;;;;;9.55;1.88;;;14.20;99.90;;;;;;5029625;28;20105;-80
2022/09/20 09:33:27;;;;;;;8.23;2.47;;;14.20;99.90;;;;;;5030303;28;20040;-80
2022/09/20 09:36:03;;;;;;;8.23;2.05;;;14.20;99.90;;;;;;5030087;28;20094;-81
2022/09/20 09:38:35;;;;;;;9.25;2.10;;;14.20;99.90;;;;;;5029475;28;20033;-80
2022/09/20 09:41:04;;;;;;;8.35;2.10;;;14.20;99.90;;;;;;5029655;28;20033;-81
2022/09/20 09:43:39;;;;;;;11.90;2.72;;;14.30;99.90;;;;;;5018013;28;20053;-81
2022/09/20 09:46:22;;;;;;;7.28;2.03;;;14.30;99.90;;;;;;5010590;28;20033;-81
2022/09/20 09:49:17;;;;;;;11.32;2.10;;;14.30;99.90;;;;;;5024967;28;20449;-81
2022/09/20 09:52:01;;;;;;;14.30;5.20;;;14.30;99.90;;;;;;5066723;28;20887;-73
2022/09/20 09:54:43;;;;;;;6.25;1.70;;;14.30;99.90;;;;;;5065340;28;20033;-73
2022/09/20 09:57:36;;;;;;;8.95;1.85;;;14.30;99.90;;;;;;5065128;28;20037;-74
2022/09/20 10:00:12;;;;;;;5.95;1.10;;;14.30;99.90;;;;;;5065075;28;20405;-73
2022/09/20 10:03:20;;;;;;;10.60;1.60;;;14.20;99.90;;;;;;5066489;28;20305;-73
2022/09/20 10:06:24;;;;;;;9.13;1.80;;;14.20;99.90;;;;;;5066279;28;20025;-73
2022/09/20 10:09:32;;;;;;;6.45;1.50;;;14.10;99.90;;;;;;5064562;28;20755;-73
2022/09/20 10:12:16;;;;;;;8.70;1.58;;;14.10;99.90;;;;;;5046618;28;20098;-73
2022/09/20 10:14:55;;;;;;;6.32;1.40;;;14.00;99.90;;;;;;5067482;28;20032;-74
2022/09/20 10:18:17;;;;;;;6.60;1.38;;;14.10;99.90;;;;;;5071688;28;20139;-73
2022/09/20 10:20:52;;;;;;;8.02;1.70;;;14.10;99.90;;;;;;5083358;28;20089;-72
2022/09/20 10:24:12;;;;;;;7.03;1.45;;;14.10;99.90;;;;;;5083350;28;20032;-71
2022/09/20 10:26:44;;;;;;;7.55;1.60;;;14.20;99.90;;;;;;5004030;28;20475;-73
2022/09/20 10:29:22;;;;;;;6.47;1.38;;;14.20;99.90;;;;;;5051550;28;20063;-73
2022/09/20 10:32:09;;;;;;;6.07;1.08;;;14.30;99.90;;;;;;5064858;28;20037;-73
2022/09/20 10:34:54;;;;;;;5.43;1.52;;;14.40;99.90;;;;;;5066131;28;20477;-75
2022/09/20 10:37:26;;;;;;;5.07;1.10;;;14.50;99.90;;;;;;5065920;28;20040;-71
2022/09/20 10:40:06;;;;;;;5.65;1.27;;;14.50;99.90;;;;;;5064547;28;20528;-73
2022/09/20 10:45:48;;;;;;;7.15;1.27;;;14.60;99.90;;;;;;5065868;28;20544;-75
2022/09/20 10:48:29;;;;;;;5.63;1.23;;;14.60;99.90;;;;;;5065899;28;20060;-73
2022/09/20 10:51:36;;;;;;;8.98;1.52;;;14.60;99.90;;;;;;5065495;28;20029;-74
2022/09/20 10:54:25;;;;;;;5.13;1.20;;;14.60;99.90;;;;;;5063482;28;20489;-74
2022/09/20 10:57:03;;;;;;;4.97;0.95;;;14.70;99.90;;;;;;5064938;28;20047;-73
2022/09/20 10:59:41;;;;;;;6.35;1.55;;;14.60;99.90;;;;;;5065532;28;20048;-73
2022/09/20 11:02:40;;;;;;;4.20;1.10;;;14.60;99.90;;;;;;5058258;28;20052;-75
2022/09/20 11:05:09;;;;;;;;;;;14.60;99.90;;;;;;5052876;28;20021;-74
2022/09/20 11:07:58;;;;;;;5.30;1.30;;;14.70;99.90;;;;;;5052024;28;19912;-73
2022/09/20 11:10:47;;;;;;;6.57;1.35;;;14.70;99.90;;;;;;5051867;28;20040;-74
2022/09/20 11:13:46;;;;;;;7.10;1.20;;;14.80;99.90;;;;;;5052091;28;20392;-73
2022/09/20 11:16:25;;;;;;;5.28;1.15;;;14.80;99.90;;;;;;5052220;28;20036;-73
2022/09/20 11:19:12;;;;;;;4.18;0.80;;;14.90;99.60;;;;;;5052127;28;20064;-73
2022/09/20 11:21:57;;;;;;;3.85;1.05;;;14.80;99.40;;;;;;5052194;28;20125;-73
2022/09/20 11:24:37;;;;;;;6.03;0.90;;;14.90;99.70;;;;;;5052010;28;20040;-73
2022/09/20 11:27:17;;;;;;;8.82;1.05;;;14.90;99.40;;;;;;5052100;28;20036;-73
2022/09/20 11:29:59;;;;;;;7.65;1.52;;;14.90;99.90;;;;;;5052079;28;20029;-73
2022/09/20 11:32:31;;;;;;;4.80;1.50;;;14.90;99.90;;;;;;5051683;28;20032;-73
2022/09/20 11:35:26;;;;;;;8.15;1.52;;;14.80;99.90;;;;;;5052042;28;20021;-72
2022/09/20 11:38:02;;;;;;;4.75;1.80;;;14.80;99.90;;;;;;5051427;28;20033;-70
2022/09/20 11:40:40;;;;;;;2.67;1.13;;;14.80;99.90;;;;;;5051618;28;20037;-70
2022/09/20 11:43:08;;;;;;;10.93;3.53;;;14.90;99.90;;;;;;5050470;28;20075;-70
2022/09/20 11:45:37;;;;;;;7.60;2.78;;;14.90;99.90;;;;;;5049923;28;20033;-70
2022/09/20 11:48:23;;;;;;;6.85;1.95;;;15.00;99.90;;;;;;5051288;28;20028;-71
2022/09/20 11:51:10;;;;;;;7.00;2.40;;;15.00;99.90;;;;;;5051036;28;20027;-71
2022/09/20 11:53:42;;;;;;;7.00;2.25;;;15.10;99.90;;;;;;5050919;28;20021;-72
2022/09/20 11:56:21;;;;;;;7.03;2.10;;;15.10;99.60;;;;;;5050899;28;20036;-70
2022/09/20 11:58:49;;;;;;;7.65;2.20;;;15.10;99.80;;;;;;5051299;28;20025;-70
2022/09/20 12:01:31;;;;;;;5.63;1.83;;;15.30;99.90;;;;;;5051118;28;20037;-71
2022/09/20 12:04:13;;;;;;;10.75;2.80;;;15.40;99.40;;;;;;5051325;28;20029;-73
2022/09/20 12:06:41;;;;;;;7.00;1.85;;;15.40;99.90;;;;;;5051259;28;20057;-71
2022/09/20 12:09:24;;;;;;;7.30;1.90;;;15.50;99.40;;;;;;5050601;28;20477;-71
2022/09/20 12:11:51;;;;;;;5.35;1.58;;;15.50;98.60;;;;;;5051159;28;20090;-71
2022/09/20 12:14:27;;;;;;;5.82;1.17;;;15.40;98.80;;;;;;5048455;28;20039;-70
2022/09/20 12:16:54;;;;;;;3.00;1.00;;;15.40;98.60;;;;;;5050650;28;20052;-70
2022/09/20 12:19:32;;;;;;;3.15;1.10;;;15.40;98.50;;;;;;5051495;28;20036;-71
2022/09/20 12:21:57;;;;;;;6.32;1.23;;;15.40;98.30;;;;;;5049194;28;20589;-71
2022/09/20 12:24:28;;;;;;;6.40;0.95;;;15.40;98.60;;;;;;5052414;28;20040;-71
2022/09/20 12:27:15;;;;;;;4.05;1.20;;;15.50;98.00;;;;;;5051948;28;20489;-71
2022/09/20 12:29:51;;;;;;;5.40;1.15;;;15.40;98.30;;;;;;5051532;28;20064;-71
2022/09/20 12:32:38;;;;;;;5.22;1.85;;;15.40;98.00;;;;;;5051930;28;20079;-71
2022/09/20 12:35:34;;;;;;;8.68;3.65;;;15.40;97.80;;;;;;5052065;28;20033;-71
2022/09/20 12:38:19;;;;;;;4.38;1.50;;;15.40;98.00;;;;;;5051820;28;20478;-71
2022/09/20 12:41:18;;;;;;;6.93;1.35;;;15.40;98.20;;;;;;5051908;28;20029;-71
2022/09/20 12:44:21;;;;;;;5.10;1.30;;;15.40;97.70;;;;;;5050491;28;20127;-71
2022/09/20 12:46:58;;;;;;;4.13;0.93;;;15.40;97.40;;;;;;5051717;28;20036;-71
2022/09/20 12:52:49;;;;;;;4.80;1.30;;;15.50;97.50;;;;;;5051466;28;20068;-71
2022/09/20 12:55:30;;;;;;;3.72;0.95;;;15.50;97.50;;;;;;5051688;28;20547;-71
2022/09/20 13:00:45;;;;;;;3.58;1.17;;;15.50;97.10;;;;;;5051262;28;20033;-71
2022/09/20 13:03:14;;;;;;;4.60;1.17;;;15.60;97.30;;;;;;5050466;28;20033;-71
2022/09/20 13:05:46;;;;;;;8.10;0.98;;;15.60;96.60;;;;;;5051821;28;20348;-71
2022/09/20 13:08:30;;;;;;;5.50;1.30;;;15.70;96.10;;;;;;5051528;28;20511;-71
2022/09/20 13:11:05;;;;;;;4.10;1.10;;;15.60;96.30;;;;;;5051307;28;20040;-70
2022/09/20 13:13:50;;;;;;;5.63;1.10;;;15.60;95.60;;;;;;5051219;28;20109;-71
2022/09/20 13:16:43;;;;;;;4.55;1.10;;;15.60;94.10;;;;;;5051277;28;20036;-70
2022/09/20 13:19:28;;;;;;;6.88;3.20;;;15.60;94.00;;;;;;5051231;28;20052;-70
2022/09/20 13:22:04;;;;;;;4.30;2.05;;;15.40;94.20;;;;;;5051172;28;20021;-70
2022/09/20 13:24:39;;;;;;;4.32;1.10;;;15.40;94.40;;;;;;5051219;28;20477;-71
2022/09/20 13:27:10;;;;;;;4.75;1.60;;;15.40;95.30;;;;;;5050909;28;20032;-71
2022/09/20 13:29:41;;;;;;;5.07;1.80;;;15.30;95.60;;;;;;5050947;28;20398;-71
2022/09/20 13:32:27;;;;;;;5.63;1.48;;;15.30;95.70;;;;;;5051097;28;20033;-71
2022/09/20 13:35:11;;;;;;;3.85;1.15;;;15.40;95.40;;;;;;5051042;28;20440;-71
2022/09/20 13:37:53;;;;;;;5.97;1.35;;;15.40;94.90;;;;;;5050962;28;20025;-70
2022/09/20 13:40:30;;;;;;;4.07;1.08;;;15.40;94.70;;;;;;5050779;28;20033;-70
2022/09/20 13:42:58;;;;;;;6.63;1.45;;;15.50;94.10;;;;;;5051042;28;20029;-70
2022/09/20 13:45:25;;;;;;;3.10;0.90;;;15.60;93.90;;;;;;5049859;28;20068;-70
2022/09/20 13:47:53;;;;;;;2.33;0.80;;;15.70;93.80;;;;;;5051060;28;20404;-70
2022/09/20 13:50:25;;;;;;;3.90;0.70;;;15.70;94.10;;;;;;5050324;28;20025;-70
2022/09/20 13:53:00;;;;;;;2.75;1.20;;;15.80;94.20;;;;;;5050873;28;20032;-71
2022/09/20 13:55:27;;;;;;;5.00;1.20;;;15.80;93.60;;;;;;5050753;28;20025;-71
2022/09/20 13:57:56;;;;;;;3.60;0.90;;;15.90;94.00;;;;;;5050826;28;20079;-71
2022/09/20 14:00:24;;;;;;;6.72;1.00;;;16.00;94.70;;;;;;5050449;28;20119;-71